X  Sluiten METAR luchtvaart weer gegevens      LYNI Nis Airport
Temperatuur
24°C Temperatuur
15°C Dauwpunt
57% Vochtigheid



Wind
3 M/S
6 MPH
10 KM/U
5 KTS



80°
O
Huidig weer

Wat bewolking Wat bewolking
Luchtdruk 1009.92 (hPa) - 29.82 (inHg)
Zicht 6.2 (mijl) - 10 (km)
Vliegveld
Vliegveld code LYNI

Locatie : Nis Airport
Afstand: 63 (km)

Metar:
LYNI 131730Z 08005KT 050V110 9999 FEW040 24/15 Q1010 NOSIG

Tijd: 13-08-2022 19:30 CEST